Time;durP1;ratioP1;P1;durP2;ratioP2;P2;SDS_P1;SDS_P2;PMS_P1;PMS_P2;Temp;Humidity;BMP_temperature;BMP_pressure;BME280_temperature;BME280_humidity;BME280_pressure;Samples;Min_cycle;Max_cycle;Signal;HPM_P1;HPM_P2
2024/02/07 00:00:25;;;;;;;18.13;9.47;;;10.60;99.90;;;;;;5044355;28;20225;-59
2024/02/07 00:02:54;;;;;;;24.63;9.33;;;10.60;99.90;;;;;;5046484;28;20270;-60
2024/02/07 00:05:22;;;;;;;18.30;9.07;;;10.60;99.90;;;;;;5049955;28;20652;-60
2024/02/07 00:07:50;;;;;;;26.23;10.60;;;10.60;99.90;;;;;;5048171;28;20262;-61
2024/02/07 00:10:22;;;;;;;23.50;10.10;;;10.60;99.90;;;;;;5051326;28;20709;-60
2024/02/07 00:12:50;;;;;;;23.83;10.23;;;10.60;99.90;;;;;;5047243;28;20224;-60
2024/02/07 00:15:17;;;;;;;19.47;9.90;;;10.60;99.90;;;;;;5041914;28;20251;-60
2024/02/07 00:17:46;;;;;;;28.20;10.50;;;10.60;99.90;;;;;;5045566;28;20255;-59
2024/02/07 00:20:15;;;;;;;17.00;9.83;;;10.50;99.90;;;;;;5046900;28;20185;-60
2024/02/07 00:22:44;;;;;;;20.57;9.20;;;10.50;99.90;;;;;;5054085;28;20228;-60
2024/02/07 00:25:12;;;;;;;22.70;9.63;;;10.50;99.90;;;;;;5053436;28;20228;-60
2024/02/07 00:27:42;;;;;;;24.17;10.17;;;10.50;99.90;;;;;;5049782;28;20250;-60
2024/02/07 00:30:11;;;;;;;23.73;10.30;;;10.50;99.90;;;;;;5048606;28;20288;-60
2024/02/07 00:32:54;;;;;;;20.33;10.50;;;10.50;99.90;;;;;;5051689;28;20554;-58
2024/02/07 00:35:23;;;;;;;20.07;10.67;;;10.50;99.90;;;;;;5050623;28;20580;-60
2024/02/07 00:37:51;;;;;;;22.63;10.30;;;10.50;99.90;;;;;;5056956;28;20200;-60
2024/02/07 00:40:19;;;;;;;19.47;10.20;;;10.50;99.90;;;;;;5039710;28;20723;-60
2024/02/07 00:42:51;;;;;;;21.83;10.57;;;10.50;99.90;;;;;;5042869;28;20295;-60
2024/02/07 00:45:21;;;;;;;19.73;10.23;;;10.50;99.90;;;;;;5055783;28;20559;-60
2024/02/07 00:47:49;;;;;;;21.57;10.63;;;10.50;99.90;;;;;;5055622;28;20236;-60
2024/02/07 00:50:18;;;;;;;20.40;9.63;;;10.50;99.90;;;;;;5055151;28;20201;-60
2024/02/07 00:52:47;;;;;;;22.00;10.20;;;10.40;99.90;;;;;;5044899;28;20285;-60
2024/02/07 00:55:15;;;;;;;22.17;10.17;;;10.40;99.90;;;;;;5052824;28;20388;-60
2024/02/07 00:57:44;;;;;;;25.73;10.70;;;10.40;99.90;;;;;;5055394;28;20631;-60
2024/02/07 01:00:15;;;;;;;25.80;10.47;;;10.40;99.90;;;;;;5052731;28;20208;-59
2024/02/07 01:02:43;;;;;;;23.30;10.23;;;10.50;99.90;;;;;;5045051;28;20217;-60
2024/02/07 01:05:12;;;;;;;19.97;9.53;;;10.50;99.90;;;;;;5053373;28;20632;-59
2024/02/07 01:07:41;;;;;;;18.80;9.00;;;10.50;99.90;;;;;;5043619;28;20216;-61
2024/02/07 01:10:10;;;;;;;20.60;10.00;;;10.50;99.90;;;;;;5050536;28;20224;-60
2024/02/07 01:12:38;;;;;;;22.53;10.57;;;10.50;99.90;;;;;;5052605;28;20248;-60
2024/02/07 01:15:08;;;;;;;24.03;10.47;;;10.50;99.90;;;;;;5055165;28;20680;-60
2024/02/07 01:17:38;;;;;;;20.57;9.33;;;10.50;99.90;;;;;;5055228;28;20229;-60
2024/02/07 01:20:10;;;;;;;19.43;9.57;;;10.50;99.90;;;;;;5039918;28;20182;-61
2024/02/07 01:22:39;;;;;;;22.87;10.83;;;10.50;99.90;;;;;;5051326;28;20219;-60
2024/02/07 01:25:08;;;;;;;17.43;10.00;;;10.50;99.90;;;;;;5049346;28;20575;-60
2024/02/07 01:27:37;;;;;;;22.00;10.63;;;10.50;99.90;;;;;;5047440;28;20255;-60
2024/02/07 01:30:07;;;;;;;22.03;9.77;;;10.40;99.90;;;;;;5046424;28;20228;-60
2024/02/07 01:32:37;;;;;;;23.77;9.80;;;10.50;99.90;;;;;;5049243;28;21019;-61
2024/02/07 01:35:06;;;;;;;21.30;10.50;;;10.40;99.90;;;;;;5048886;28;20303;-60
2024/02/07 01:37:35;;;;;;;25.10;9.87;;;10.50;99.90;;;;;;5051932;28;20213;-60
2024/02/07 01:40:04;;;;;;;22.43;9.83;;;10.50;99.90;;;;;;5044037;28;20213;-60
2024/02/07 01:42:34;;;;;;;17.60;10.13;;;10.50;99.90;;;;;;5049582;28;20702;-60
2024/02/07 01:45:24;;;;;;;19.60;9.40;;;10.50;99.90;;;;;;5049149;28;20278;-60
2024/02/07 01:47:54;;;;;;;19.63;9.00;;;10.50;99.90;;;;;;5035175;28;20229;-60
2024/02/07 01:50:23;;;;;;;24.37;10.17;;;10.50;99.90;;;;;;5051431;28;20208;-61
2024/02/07 01:52:55;;;;;;;23.80;9.63;;;10.40;99.90;;;;;;5049427;28;20586;-60
2024/02/07 01:55:25;;;;;;;18.57;9.33;;;10.40;99.90;;;;;;5050758;28;20249;-60
2024/02/07 01:57:54;;;;;;;28.00;9.97;;;10.50;99.90;;;;;;5047662;28;20225;-60
2024/02/07 02:00:23;;;;;;;19.77;9.70;;;10.50;99.90;;;;;;5047672;28;20227;-60
2024/02/07 02:02:54;;;;;;;22.60;9.87;;;10.50;99.90;;;;;;5051366;28;20279;-60
2024/02/07 02:05:22;;;;;;;20.80;9.60;;;10.50;99.90;;;;;;5052267;28;20224;-60
2024/02/07 02:07:51;;;;;;;26.13;10.43;;;10.40;99.90;;;;;;5054036;28;20735;-60
2024/02/07 02:10:20;;;;;;;17.07;9.93;;;10.40;99.90;;;;;;5041655;28;20311;-60
2024/02/07 02:12:49;;;;;;;17.67;8.90;;;10.40;99.90;;;;;;5049697;28;20267;-60
2024/02/07 02:15:17;;;;;;;19.57;9.43;;;10.40;99.90;;;;;;5049473;28;20633;-59
2024/02/07 02:17:46;;;;;;;18.00;8.90;;;10.50;99.90;;;;;;5042930;28;20305;-60
2024/02/07 02:20:16;;;;;;;14.63;7.83;;;10.50;99.90;;;;;;5043109;28;20194;-60
2024/02/07 02:23:06;;;;;;;22.27;8.63;;;10.50;99.90;;;;;;5044458;28;20192;-60
2024/02/07 02:25:47;;;;;;;21.60;8.03;;;10.50;99.90;;;;;;5047162;28;20213;-59
2024/02/07 02:28:27;;;;;;;15.30;7.83;;;10.50;99.90;;;;;;5048702;28;20218;-59
2024/02/07 02:31:01;;;;;;;14.40;7.80;;;10.50;99.90;;;;;;5051871;28;20343;-60
2024/02/07 02:33:35;;;;;;;14.60;8.20;;;10.50;99.90;;;;;;5048434;28;20237;-60
2024/02/07 02:36:08;;;;;;;23.33;8.17;;;10.50;99.90;;;;;;5047014;28;20229;-60
2024/02/07 02:38:37;;;;;;;12.90;7.20;;;10.50;99.90;;;;;;5051757;28;20314;-60
2024/02/07 02:41:08;;;;;;;16.50;7.87;;;10.50;99.90;;;;;;5052226;28;20184;-60
2024/02/07 02:43:39;;;;;;;14.87;7.40;;;10.50;99.90;;;;;;5046476;28;20235;-60
2024/02/07 02:46:10;;;;;;;15.03;7.20;;;10.50;99.90;;;;;;5045417;28;20595;-60
2024/02/07 02:48:39;;;;;;;14.50;6.83;;;10.50;99.90;;;;;;5052439;28;20722;-60
2024/02/07 02:51:10;;;;;;;17.40;7.00;;;10.50;99.90;;;;;;5050436;28;20319;-60
2024/02/07 02:53:38;;;;;;;16.20;7.63;;;10.50;99.90;;;;;;5053003;28;20303;-60
2024/02/07 02:56:09;;;;;;;22.27;7.37;;;10.50;99.90;;;;;;5046945;28;20193;-60
2024/02/07 02:58:38;;;;;;;15.00;7.27;;;10.50;99.90;;;;;;5048347;28;20235;-60
2024/02/07 03:01:13;;;;;;;15.27;7.33;;;10.50;99.90;;;;;;5047856;28;20213;-60
2024/02/07 03:03:53;;;;;;;15.00;6.87;;;10.50;99.90;;;;;;5046259;28;20221;-60
2024/02/07 03:06:29;;;;;;;13.10;6.73;;;10.50;99.90;;;;;;5048517;28;20263;-60
2024/02/07 03:09:19;;;;;;;13.87;6.67;;;10.50;99.90;;;;;;5052509;28;20286;-60
2024/02/07 03:11:50;;;;;;;11.40;6.53;;;10.50;99.90;;;;;;5050226;28;20232;-60
2024/02/07 03:14:18;;;;;;;11.87;6.80;;;10.60;99.90;;;;;;5049819;28;20220;-60
2024/02/07 03:16:48;;;;;;;13.20;7.17;;;10.60;99.90;;;;;;5048995;28;20644;-60
2024/02/07 03:19:17;;;;;;;20.10;7.23;;;10.50;99.90;;;;;;5048543;28;20213;-61
2024/02/07 03:21:46;;;;;;;16.53;7.03;;;10.60;99.90;;;;;;5050195;28;20216;-60
2024/02/07 03:24:14;;;;;;;14.00;6.30;;;10.50;99.90;;;;;;5050166;28;20219;-59
2024/02/07 03:26:44;;;;;;;13.00;6.60;;;10.60;99.90;;;;;;5043977;28;20595;-60
2024/02/07 03:29:13;;;;;;;12.60;6.50;;;10.60;99.90;;;;;;5051605;28;20612;-59
2024/02/07 03:31:41;;;;;;;12.70;6.43;;;10.60;99.90;;;;;;5052867;28;20209;-59
2024/02/07 03:34:10;;;;;;;9.20;6.57;;;10.60;99.90;;;;;;5051776;28;20225;-60
2024/02/07 03:36:39;;;;;;;14.53;6.70;;;10.60;99.90;;;;;;5047333;28;20208;-60
2024/02/07 03:39:09;;;;;;;12.10;6.77;;;10.60;99.90;;;;;;5051620;28;20694;-59
2024/02/07 03:41:39;;;;;;;13.37;6.83;;;10.60;99.90;;;;;;5052197;28;20224;-59
2024/02/07 03:44:12;;;;;;;12.67;6.30;;;10.60;99.90;;;;;;5052593;28;20264;-59
2024/02/07 03:46:41;;;;;;;10.67;6.40;;;10.50;99.90;;;;;;5049060;28;20308;-59
2024/02/07 03:49:11;;;;;;;12.23;6.90;;;10.50;99.90;;;;;;5052743;28;20230;-59
2024/02/07 03:51:39;;;;;;;9.03;6.70;;;10.50;99.90;;;;;;5050027;28;20758;-59
2024/02/07 03:54:09;;;;;;;13.30;6.73;;;10.50;99.90;;;;;;5043550;28;20216;-60
2024/02/07 03:56:37;;;;;;;11.87;6.93;;;10.50;99.90;;;;;;5045621;28;20308;-60
2024/02/07 03:59:06;;;;;;;13.10;6.57;;;10.50;99.90;;;;;;5050426;28;20224;-59
2024/02/07 04:01:35;;;;;;;10.50;7.17;;;10.50;99.90;;;;;;5050216;28;20240;-59
2024/02/07 04:04:07;;;;;;;16.60;7.60;;;10.50;99.90;;;;;;5051766;28;20251;-60
2024/02/07 04:06:37;;;;;;;17.50;7.70;;;10.50;99.90;;;;;;5047743;28;20220;-60
2024/02/07 04:09:06;;;;;;;5.63;4.87;;;10.50;99.90;;;;;;5047767;28;20710;-60
2024/02/07 05:17:18;;;;;;;13.43;7.97;;;6.10;99.90;;;;;;5049050;28;20288;-60
2024/02/07 05:19:47;;;;;;;14.07;8.90;;;6.20;99.90;;;;;;5049985;28;20193;-60
2024/02/07 05:22:17;;;;;;;13.80;8.70;;;6.20;99.90;;;;;;5044440;28;20240;-60
2024/02/07 05:24:46;;;;;;;9.87;8.23;;;6.20;99.90;;;;;;5046608;28;20237;-60
2024/02/07 05:27:17;;;;;;;11.90;8.53;;;6.20;99.90;;;;;;5064140;28;20217;-60
2024/02/07 05:29:45;;;;;;;10.40;8.40;;;6.20;99.90;;;;;;5042174;28;20672;-60
2024/02/07 05:32:16;;;;;;;12.63;7.83;;;6.20;99.90;;;;;;5052813;28;20300;-60
2024/02/07 05:34:44;;;;;;;10.10;7.47;;;6.10;99.90;;;;;;5054085;28;20240;-60
2024/02/07 05:37:13;;;;;;;11.50;7.90;;;5.90;99.90;;;;;;5046034;28;20579;-60
2024/02/07 05:39:41;;;;;;;13.97;7.40;;;5.90;99.90;;;;;;5040718;28;20786;-60
2024/02/07 05:42:11;;;;;;;12.03;8.43;;;5.90;99.90;;;;;;5052074;28;20371;-60
2024/02/07 05:44:41;;;;;;;12.77;8.60;;;6.00;99.90;;;;;;5044610;28;20595;-60
2024/02/07 05:47:09;;;;;;;13.30;7.57;;;5.90;99.90;;;;;;5036814;28;20529;-60
2024/02/07 05:49:37;;;;;;;17.03;10.30;;;5.90;99.90;;;;;;5052388;28;20701;-60
2024/02/07 05:52:05;;;;;;;18.23;10.73;;;5.80;99.90;;;;;;5052121;28;20620;-60
2024/02/07 05:54:34;;;;;;;16.43;10.50;;;5.80;99.90;;;;;;5044988;28;20214;-60
2024/02/07 05:57:02;;;;;;;18.23;12.13;;;5.90;99.90;;;;;;5040821;28;20251;-60
2024/02/07 05:59:30;;;;;;;21.30;12.20;;;5.90;99.90;;;;;;5051760;28;20277;-60
2024/02/07 06:02:00;;;;;;;24.07;13.80;;;5.90;99.90;;;;;;5045626;28;20224;-60
2024/02/07 06:04:29;;;;;;;26.37;14.37;;;5.80;99.90;;;;;;5053790;28;20319;-60
2024/02/07 06:06:57;;;;;;;24.47;14.13;;;5.80;99.90;;;;;;5053688;28;20307;-60
2024/02/07 06:09:25;;;;;;;26.50;14.13;;;5.80;99.90;;;;;;5048587;28;20231;-60
2024/02/07 06:11:53;;;;;;;23.10;13.07;;;5.80;99.90;;;;;;5039012;28;20219;-60
2024/02/07 06:14:21;;;;;;;22.97;12.77;;;5.80;99.90;;;;;;5044630;28;20190;-60
2024/02/07 06:16:50;;;;;;;24.93;13.40;;;5.70;99.90;;;;;;5029034;28;20198;-60
2024/02/07 06:19:20;;;;;;;22.77;13.00;;;5.70;99.90;;;;;;5039424;28;20220;-60
2024/02/07 06:21:49;;;;;;;27.13;12.97;;;5.70;99.90;;;;;;5046542;28;20229;-60
2024/02/07 06:24:17;;;;;;;21.93;12.63;;;5.60;99.90;;;;;;5046725;28;20233;-61
2024/02/07 06:26:46;;;;;;;20.80;11.53;;;5.60;99.90;;;;;;5046167;28;20220;-61
2024/02/07 06:29:14;;;;;;;18.80;11.67;;;5.60;99.90;;;;;;5046474;28;20236;-60
2024/02/07 06:31:43;;;;;;;27.47;11.87;;;5.50;99.90;;;;;;5050174;28;20234;-61
2024/02/07 06:34:12;;;;;;;18.63;9.40;;;5.50;99.90;;;;;;5063044;28;20253;-62
2024/02/07 06:36:42;;;;;;;17.83;9.90;;;5.40;99.90;;;;;;5045504;28;20222;-59
2024/02/07 06:39:10;;;;;;;18.63;9.80;;;5.40;99.90;;;;;;5048938;28;20223;-59
2024/02/07 06:41:38;;;;;;;18.00;9.27;;;5.40;99.90;;;;;;5048212;28;20234;-62
2024/02/07 06:44:07;;;;;;;16.23;10.10;;;5.30;99.90;;;;;;5040438;28;20192;-61
2024/02/07 06:46:42;;;;;;;19.30;11.37;;;5.30;99.90;;;;;;5050194;28;20610;-60
2024/02/07 06:49:11;;;;;;;23.97;11.33;;;5.40;99.90;;;;;;5040125;28;20707;-61
2024/02/07 06:51:40;;;;;;;25.37;12.27;;;5.30;99.90;;;;;;5052476;28;20303;-59
2024/02/07 06:54:12;;;;;;;27.63;13.47;;;5.30;99.90;;;;;;5051300;28;20216;-61
2024/02/07 06:56:41;;;;;;;27.33;13.47;;;5.40;99.90;;;;;;5051053;28;20225;-60
2024/02/07 06:59:12;;;;;;;29.90;13.70;;;5.40;99.90;;;;;;5051066;28;20193;-60
2024/02/07 07:01:41;;;;;;;29.50;13.87;;;5.30;99.90;;;;;;5053170;28;20224;-61
2024/02/07 07:04:09;;;;;;;32.70;14.47;;;5.40;99.90;;;;;;5048768;28;20308;-60
2024/02/07 07:06:38;;;;;;;30.17;14.90;;;5.30;99.90;;;;;;5048143;28;20638;-60
2024/02/07 07:09:06;;;;;;;30.97;16.07;;;5.20;99.90;;;;;;5052204;28;20221;-60
2024/02/07 07:11:36;;;;;;;30.00;14.53;;;5.30;99.90;;;;;;5051182;28;20225;-60
2024/02/07 07:14:04;;;;;;;28.20;14.10;;;5.40;99.90;;;;;;5045835;28;20201;-60
2024/02/07 07:16:32;;;;;;;23.23;12.40;;;5.40;99.90;;;;;;5050990;28;20303;-60
2024/02/07 07:19:01;;;;;;;24.50;12.70;;;5.30;99.90;;;;;;5046214;28;20244;-60
2024/02/07 07:21:30;;;;;;;24.63;13.20;;;5.30;99.90;;;;;;5067651;28;20343;-60
2024/02/07 07:23:59;;;;;;;33.50;12.50;;;5.30;99.90;;;;;;5047806;28;20220;-61
2024/02/07 07:26:27;;;;;;;21.67;12.30;;;5.30;99.90;;;;;;5050072;28;20704;-61
2024/02/07 07:28:58;;;;;;;23.50;12.80;;;5.30;99.90;;;;;;5046939;28;20379;-60
2024/02/07 07:31:27;;;;;;;30.60;13.63;;;5.30;99.90;;;;;;5049252;28;20312;-62
2024/02/07 07:33:55;;;;;;;29.07;13.77;;;5.40;99.90;;;;;;5039277;28;20266;-62
2024/02/07 07:36:26;;;;;;;28.23;13.23;;;5.30;99.90;;;;;;5041682;28;20576;-62
2024/02/07 07:38:55;;;;;;;16.10;8.07;;;5.30;99.90;;;;;;5038503;28;20224;-62
2024/02/07 07:41:24;;;;;;;20.30;8.63;;;5.20;99.90;;;;;;5042832;28;20193;-62
2024/02/07 07:43:52;;;;;;;15.40;6.20;;;5.20;99.90;;;;;;5042549;28;20648;-62
2024/02/07 07:46:22;;;;;;;14.60;5.63;;;5.10;99.90;;;;;;5040433;28;20222;-62
2024/02/07 07:48:51;;;;;;;13.40;6.03;;;5.10;99.90;;;;;;5040223;28;20585;-62
2024/02/07 07:51:20;;;;;;;12.43;6.00;;;5.00;99.90;;;;;;5044842;28;20698;-62
2024/02/07 07:53:49;;;;;;;12.53;5.13;;;5.00;99.90;;;;;;5038439;28;20225;-62
2024/02/07 07:56:17;;;;;;;14.53;5.40;;;5.00;99.90;;;;;;5043764;28;20208;-61
2024/02/07 07:58:48;;;;;;;15.13;4.87;;;5.00;99.90;;;;;;5043780;28;20549;-62
2024/02/07 08:01:22;;;;;;;18.27;5.37;;;4.90;99.90;;;;;;5028420;28;20224;-62
2024/02/07 08:03:52;;;;;;;10.07;4.33;;;4.90;99.90;;;;;;5033610;28;21916;-62
2024/02/07 08:06:20;;;;;;;12.40;4.43;;;4.90;99.90;;;;;;5041681;28;20221;-62
2024/02/07 08:08:49;;;;;;;13.47;4.40;;;4.80;99.90;;;;;;5042352;28;20681;-62
2024/02/07 08:11:17;;;;;;;18.47;3.97;;;4.80;99.90;;;;;;5041308;28;20217;-61
2024/02/07 08:13:45;;;;;;;15.23;3.87;;;4.80;99.90;;;;;;5039671;28;20217;-62
2024/02/07 08:16:14;;;;;;;19.53;4.53;;;4.80;99.90;;;;;;5040735;28;20351;-62
2024/02/07 08:18:44;;;;;;;9.23;4.30;;;4.80;99.90;;;;;;5040939;28;20271;-62
2024/02/07 08:21:12;;;;;;;18.80;4.47;;;4.90;99.90;;;;;;5041280;28;20209;-62
2024/02/07 08:23:40;;;;;;;13.87;4.40;;;4.90;99.90;;;;;;5041718;28;20262;-62
2024/02/07 08:26:10;;;;;;;13.30;4.73;;;4.90;99.90;;;;;;5041294;28;20670;-61
2024/02/07 08:28:39;;;;;;;14.73;4.23;;;4.90;99.90;;;;;;5038242;28;20223;-61
2024/02/07 08:31:07;;;;;;;17.90;4.40;;;4.90;99.90;;;;;;5041674;28;20246;-62
2024/02/07 08:33:35;;;;;;;13.37;4.30;;;4.90;99.90;;;;;;5040829;28;20216;-62
2024/02/07 08:36:06;;;;;;;20.17;5.60;;;4.90;99.90;;;;;;5042898;28;20227;-62
2024/02/07 08:38:35;;;;;;;19.47;5.13;;;4.90;99.90;;;;;;5043401;28;20703;-61
2024/02/07 08:41:04;;;;;;;14.63;5.20;;;5.00;99.90;;;;;;5045752;28;20185;-62
2024/02/07 08:43:32;;;;;;;12.77;4.63;;;5.00;99.90;;;;;;5043265;28;20224;-62
2024/02/07 08:46:00;;;;;;;15.70;4.10;;;5.00;99.90;;;;;;5046732;28;20690;-61
2024/02/07 08:48:29;;;;;;;19.97;5.10;;;5.00;99.90;;;;;;5045880;28;20595;-62
2024/02/07 08:50:57;;;;;;;11.67;3.60;;;4.90;99.90;;;;;;5045958;28;20225;-62
2024/02/07 08:53:27;;;;;;;20.77;3.53;;;4.90;99.90;;;;;;5042366;28;20196;-62
2024/02/07 08:55:57;;;;;;;9.83;3.63;;;4.90;99.90;;;;;;5045515;28;20212;-62
2024/02/07 08:58:27;;;;;;;20.20;4.07;;;4.90;99.90;;;;;;5046165;28;20232;-62
2024/02/07 09:00:56;;;;;;;16.13;3.97;;;5.00;99.90;;;;;;5046303;28;20217;-62
2024/02/07 09:03:24;;;;;;;14.90;4.57;;;5.00;99.90;;;;;;5044743;28;20219;-62
2024/02/07 09:05:53;;;;;;;10.17;3.73;;;5.00;99.90;;;;;;5042347;28;20229;-62
2024/02/07 09:08:22;;;;;;;18.80;3.83;;;5.00;99.90;;;;;;5044107;28;20271;-62
2024/02/07 09:10:51;;;;;;;15.03;3.60;;;5.10;99.90;;;;;;5045984;28;20197;-62
2024/02/07 09:13:20;;;;;;;17.43;3.77;;;5.00;99.90;;;;;;5038654;28;20275;-62
2024/02/07 09:15:48;;;;;;;14.50;3.80;;;5.00;99.90;;;;;;5046506;28;20228;-62
2024/02/07 09:18:16;;;;;;;15.67;3.90;;;5.00;99.90;;;;;;5048447;28;20217;-62
2024/02/07 09:20:44;;;;;;;14.80;4.47;;;5.00;99.90;;;;;;5047727;28;20593;-62
2024/02/07 09:23:13;;;;;;;9.97;4.07;;;5.00;99.90;;;;;;5044622;28;20205;-62
2024/02/07 09:25:41;;;;;;;16.03;4.43;;;5.00;99.90;;;;;;5049530;28;20196;-62
2024/02/07 09:28:10;;;;;;;15.73;4.33;;;5.00;99.90;;;;;;5047475;28;20278;-62
2024/02/07 09:30:39;;;;;;;27.83;4.83;;;5.10;99.90;;;;;;5044099;28;20307;-62
2024/02/07 09:33:07;;;;;;;12.30;4.50;;;5.10;99.90;;;;;;5062562;28;20291;-62
2024/02/07 09:35:38;;;;;;;17.30;5.13;;;5.10;99.90;;;;;;5046535;28;20621;-62
2024/02/07 09:38:07;;;;;;;15.70;5.10;;;5.10;99.90;;;;;;5042834;28;20258;-62
2024/02/07 09:40:35;;;;;;;23.53;5.17;;;5.10;99.90;;;;;;5043826;28;20325;-62
2024/02/07 09:43:05;;;;;;;21.60;5.40;;;5.10;99.90;;;;;;5042690;28;20243;-62
2024/02/07 09:45:35;;;;;;;14.53;5.37;;;5.10;99.90;;;;;;5045311;28;20239;-62
2024/02/07 09:48:12;;;;;;;17.83;6.07;;;5.20;99.90;;;;;;5043335;28;20881;-62
2024/02/07 09:50:42;;;;;;;15.73;6.57;;;5.20;99.90;;;;;;5045353;28;20229;-62
2024/02/07 09:53:13;;;;;;;21.20;5.70;;;5.30;99.90;;;;;;5048714;28;20598;-63
2024/02/07 09:55:43;;;;;;;18.93;6.13;;;5.20;99.90;;;;;;5040732;28;20237;-62
2024/02/07 09:58:12;;;;;;;11.80;5.60;;;5.10;99.90;;;;;;5044293;28;20217;-62
2024/02/07 10:00:42;;;;;;;15.80;5.80;;;5.10;99.90;;;;;;5043676;28;20255;-62
2024/02/07 10:03:14;;;;;;;15.03;5.80;;;5.10;99.90;;;;;;5044134;28;20691;-61
2024/02/07 10:05:50;;;;;;;16.43;5.33;;;5.20;99.90;;;;;;5041899;28;20228;-62
2024/02/07 10:08:21;;;;;;;15.50;5.50;;;5.10;99.90;;;;;;5042626;28;20209;-62
2024/02/07 10:10:51;;;;;;;21.10;5.00;;;5.20;99.90;;;;;;5044458;28;20193;-62
2024/02/07 10:13:19;;;;;;;13.47;4.50;;;5.10;99.90;;;;;;5044858;28;20232;-62
2024/02/07 10:15:49;;;;;;;16.50;4.30;;;5.00;99.90;;;;;;5043874;28;20291;-62
2024/02/07 10:18:18;;;;;;;21.67;4.50;;;5.10;99.90;;;;;;5040227;28;20224;-62
2024/02/07 10:20:52;;;;;;;16.87;4.30;;;5.20;99.90;;;;;;5041809;28;20232;-62
2024/02/07 10:23:21;;;;;;;23.80;4.20;;;5.20;99.90;;;;;;5043027;28;20871;-62
2024/02/07 10:25:51;;;;;;;19.30;4.73;;;5.20;99.90;;;;;;5043931;28;20659;-63
2024/02/07 10:28:20;;;;;;;19.73;4.67;;;5.10;99.90;;;;;;5038601;28;20225;-62
2024/02/07 10:30:58;;;;;;;15.47;4.27;;;5.00;99.90;;;;;;5043557;28;20296;-62
2024/02/07 10:33:34;;;;;;;14.67;4.03;;;5.00;99.90;;;;;;5046285;28;20232;-62
2024/02/07 10:36:11;;;;;;;14.87;4.90;;;5.00;99.90;;;;;;5047160;28;20226;-62
2024/02/07 10:38:41;;;;;;;14.77;4.17;;;5.00;99.90;;;;;;5045164;28;20220;-63
2024/02/07 10:41:09;;;;;;;21.43;4.57;;;5.00;99.90;;;;;;5043153;28;20201;-62
2024/02/07 10:43:38;;;;;;;16.83;4.53;;;5.10;99.90;;;;;;5045077;28;20648;-63
2024/02/07 10:46:14;;;;;;;17.27;4.43;;;5.10;99.90;;;;;;5041609;28;20339;-62
2024/02/07 10:48:43;;;;;;;15.70;4.33;;;5.10;99.90;;;;;;5047173;28;20217;-63
2024/02/07 10:51:12;;;;;;;24.33;4.70;;;5.20;99.90;;;;;;5043790;28;20228;-62
2024/02/07 10:53:40;;;;;;;21.93;4.40;;;5.10;99.90;;;;;;5046439;28;20224;-62
2024/02/07 10:56:14;;;;;;;14.87;4.20;;;4.90;99.90;;;;;;5044351;28;20208;-62
2024/02/07 10:58:44;;;;;;;15.63;4.23;;;4.90;99.90;;;;;;5042864;28;20270;-62
2024/02/07 11:01:14;;;;;;;18.67;4.03;;;5.00;99.90;;;;;;5043958;28;20209;-62
2024/02/07 11:03:43;;;;;;;20.60;3.80;;;4.90;99.90;;;;;;5041214;28;20689;-62
2024/02/07 11:06:12;;;;;;;13.40;3.80;;;4.90;99.90;;;;;;5045626;28;20259;-62
2024/02/07 11:08:42;;;;;;;18.67;3.70;;;4.90;99.90;;;;;;5040039;28;20663;-62
2024/02/07 11:11:11;;;;;;;20.63;4.03;;;4.90;99.90;;;;;;5041843;28;20212;-61
2024/02/07 11:13:40;;;;;;;15.87;4.30;;;4.90;99.90;;;;;;5042767;28;21396;-62
2024/02/07 11:16:08;;;;;;;16.83;4.30;;;4.90;99.90;;;;;;5041143;28;20228;-61
2024/02/07 11:18:38;;;;;;;16.77;3.93;;;5.00;99.90;;;;;;5040906;28;20224;-62
2024/02/07 11:21:08;;;;;;;21.57;4.33;;;5.00;99.90;;;;;;5039694;28;20286;-62
2024/02/07 11:23:37;;;;;;;12.67;3.23;;;5.00;99.90;;;;;;5039287;28;20228;-62
2024/02/07 11:26:08;;;;;;;17.93;2.97;;;5.00;99.90;;;;;;5042143;28;20204;-62
2024/02/07 11:28:37;;;;;;;19.03;2.90;;;4.90;99.90;;;;;;5040345;28;20576;-62
2024/02/07 11:31:07;;;;;;;17.47;3.30;;;4.90;99.90;;;;;;5041516;28;21699;-62
2024/02/07 11:33:40;;;;;;;19.37;3.20;;;5.00;99.90;;;;;;5046375;28;20715;-62
2024/02/07 11:36:16;;;;;;;15.20;3.33;;;5.00;99.90;;;;;;5042389;28;20246;-62
2024/02/07 11:38:49;;;;;;;11.33;3.13;;;5.00;99.90;;;;;;5040899;28;20227;-62
2024/02/07 11:41:19;;;;;;;21.73;3.40;;;5.10;99.90;;;;;;5042191;28;20193;-62
2024/02/07 11:43:50;;;;;;;13.70;3.40;;;5.00;99.90;;;;;;5043644;28;20200;-62
2024/02/07 11:46:18;;;;;;;17.10;4.57;;;5.20;99.90;;;;;;5041295;28;20649;-62
2024/02/07 11:48:53;;;;;;;49.77;20.33;;;5.20;99.90;;;;;;5043012;28;20230;-62
2024/02/07 11:51:23;;;;;;;20.03;8.10;;;5.30;99.90;;;;;;5041345;28;20275;-62
2024/02/07 11:53:56;;;;;;;16.67;3.73;;;5.20;99.90;;;;;;5042347;28;20565;-62
2024/02/07 11:56:26;;;;;;;15.23;4.10;;;5.20;99.90;;;;;;5038919;28;20304;-61
2024/02/07 11:58:54;;;;;;;15.37;4.37;;;5.20;99.90;;;;;;5043789;28;20203;-62
2024/02/07 12:01:24;;;;;;;24.63;5.90;;;5.40;99.90;;;;;;5043051;28;20220;-62
2024/02/07 12:03:58;;;;;;;17.53;4.73;;;5.40;99.90;;;;;;5043573;28;20247;-61
2024/02/07 12:06:26;;;;;;;15.57;4.20;;;5.40;99.90;;;;;;5040233;28;20224;-61
2024/02/07 12:08:55;;;;;;;12.03;3.87;;;5.40;99.90;;;;;;5040569;28;20225;-61
2024/02/07 12:11:23;;;;;;;16.77;4.63;;;5.50;99.90;;;;;;5042484;28;20199;-62
2024/02/07 12:13:51;;;;;;;13.50;4.27;;;5.50;99.90;;;;;;5041278;28;20203;-62
2024/02/07 12:16:19;;;;;;;11.30;3.37;;;5.40;99.90;;;;;;5044481;28;20220;-62
2024/02/07 12:18:48;;;;;;;35.03;15.63;;;5.40;99.90;;;;;;5041967;28;20243;-61
2024/02/07 12:21:19;;;;;;;16.77;8.77;;;5.40;99.90;;;;;;5041462;28;20228;-62
2024/02/07 12:23:51;;;;;;;25.87;9.47;;;5.40;99.90;;;;;;5037268;28;20295;-61
2024/02/07 12:26:25;;;;;;;21.17;8.23;;;5.30;99.90;;;;;;5037279;28;20635;-61
2024/02/07 12:28:56;;;;;;;29.17;7.93;;;5.30;99.90;;;;;;5033885;28;20203;-61
2024/02/07 12:31:25;;;;;;;22.90;8.50;;;5.40;99.90;;;;;;5036099;28;20216;-61
2024/02/07 12:33:54;;;;;;;17.50;4.73;;;5.50;99.90;;;;;;5037594;28;20780;-62
2024/02/07 12:36:24;;;;;;;27.20;9.70;;;5.60;99.90;;;;;;5035491;28;20220;-62
2024/02/07 12:38:52;;;;;;;19.00;5.93;;;5.60;99.90;;;;;;5037563;28;20233;-62
2024/02/07 12:41:20;;;;;;;17.07;6.80;;;5.70;99.90;;;;;;5039064;28;20279;-62
2024/02/07 12:43:49;;;;;;;25.70;7.17;;;5.60;99.90;;;;;;5035720;28;20247;-61
2024/02/07 12:46:17;;;;;;;13.00;3.83;;;5.60;99.90;;;;;;5036639;28;20309;-61
2024/02/07 12:48:46;;;;;;;13.43;3.10;;;5.60;99.90;;;;;;5038793;28;20301;-61
2024/02/07 12:51:16;;;;;;;8.40;3.13;;;5.50;99.90;;;;;;5037329;28;20231;-61
2024/02/07 12:53:45;;;;;;;8.67;3.83;;;5.30;99.90;;;;;;5037346;28;20220;-61
2024/02/07 12:56:18;;;;;;;10.10;4.87;;;5.30;99.90;;;;;;5037606;28;20647;-61
2024/02/07 12:58:46;;;;;;;9.07;3.47;;;5.40;99.90;;;;;;5039965;28;20287;-61
2024/02/07 13:01:20;;;;;;;10.80;4.63;;;5.40;99.90;;;;;;5040478;28;20227;-62
2024/02/07 13:03:55;;;;;;;4.53;3.80;;;5.40;99.90;;;;;;5037578;28;20224;-61
2024/02/07 13:06:23;;;;;;;12.23;3.40;;;5.40;99.90;;;;;;5037078;28;20224;-62
2024/02/07 13:08:53;;;;;;;9.93;4.10;;;5.30;99.90;;;;;;5037500;28;20220;-61
2024/02/07 13:11:21;;;;;;;8.40;4.30;;;5.30;99.90;;;;;;5037542;28;20205;-62
2024/02/07 13:13:49;;;;;;;9.07;3.83;;;5.40;99.90;;;;;;5039274;28;20711;-61
2024/02/07 13:16:20;;;;;;;11.23;4.73;;;5.40;99.90;;;;;;5037205;28;20228;-62
2024/02/07 13:18:48;;;;;;;4.57;3.80;;;5.40;99.90;;;;;;5036523;28;20676;-61
2024/02/07 13:21:16;;;;;;;10.63;4.17;;;5.40;99.90;;;;;;5037564;28;20262;-62
2024/02/07 13:23:45;;;;;;;6.30;4.63;;;5.40;99.90;;;;;;5035782;28;20274;-62
2024/02/07 13:26:20;;;;;;;6.97;4.57;;;5.40;99.90;;;;;;5035737;28;20209;-62
2024/02/07 13:28:48;;;;;;;6.67;4.07;;;5.40;99.90;;;;;;5038514;28;20200;-61
2024/02/07 13:31:16;;;;;;;20.40;12.73;;;5.40;99.90;;;;;;5041240;28;20621;-62
2024/02/07 13:33:45;;;;;;;8.70;4.73;;;5.40;99.90;;;;;;5039361;28;20743;-62
2024/02/07 13:36:13;;;;;;;7.50;4.43;;;5.30;99.90;;;;;;5038865;28;20213;-62
2024/02/07 13:38:41;;;;;;;14.57;6.70;;;5.30;99.90;;;;;;5039834;28;20232;-62
2024/02/07 13:41:10;;;;;;;23.70;10.70;;;5.30;99.90;;;;;;5045461;28;20204;-62
2024/02/07 13:43:40;;;;;;;8.40;4.70;;;5.40;99.90;;;;;;5040383;28;20615;-61
2024/02/07 13:46:08;;;;;;;14.63;6.80;;;5.40;99.90;;;;;;5041853;28;20220;-62
2024/02/07 13:48:36;;;;;;;10.13;4.60;;;5.50;99.90;;;;;;5042211;28;20240;-62
2024/02/07 13:51:05;;;;;;;12.83;6.67;;;5.50;99.90;;;;;;5042995;28;20274;-62
2024/02/07 13:53:33;;;;;;;12.50;5.90;;;5.40;99.90;;;;;;5039988;28;20734;-62
2024/02/07 13:56:06;;;;;;;8.23;3.93;;;5.30;99.90;;;;;;5040696;28;20229;-62
2024/02/07 13:58:34;;;;;;;5.37;3.63;;;5.30;99.90;;;;;;5039996;28;20251;-62
2024/02/07 14:01:04;;;;;;;5.27;2.93;;;5.40;99.90;;;;;;5040748;28;20244;-62